createdAt,value
2022-09-28T00:01:26.522Z,99320.47
2022-09-28T00:03:59.365Z,99321.48
2022-09-28T00:06:29.680Z,99320.69
2022-09-28T00:08:58.014Z,99320.48
2022-09-28T00:11:28.773Z,99318.33
2022-09-28T00:14:01.826Z,99320.02
2022-09-28T00:16:34.463Z,99316.77
2022-09-28T00:19:03.154Z,99313.34
2022-09-28T00:21:34.019Z,99311.20
2022-09-28T00:24:14.262Z,99315.39
2022-09-28T00:26:51.821Z,99309.03
2022-09-28T00:29:21.967Z,99301.67
2022-09-28T00:31:52.995Z,99300.27
2022-09-28T00:34:20.448Z,99297.52
2022-09-28T00:36:47.933Z,99298.16
2022-09-28T00:39:16.380Z,99294.70
2022-09-28T00:41:45.241Z,99295.70
2022-09-28T00:44:37.453Z,99292.66
2022-09-28T00:47:32.662Z,99293.66
2022-09-28T00:50:08.798Z,99296.80
2022-09-28T00:53:00.940Z,99293.42
2022-09-28T00:55:44.190Z,99291.73
2022-09-28T00:58:21.185Z,99285.89
2022-09-28T01:00:49.379Z,99289.67
2022-09-28T01:03:17.022Z,99292.04
2022-09-28T01:05:46.189Z,99288.80
2022-09-28T01:08:14.928Z,99287.19
2022-09-28T01:10:43.311Z,99285.75
2022-09-28T01:13:12.792Z,99281.73
2022-09-28T01:16:17.778Z,99282.80
2022-09-28T01:19:43.800Z,99285.15
2022-09-28T01:22:45.146Z,99278.72
2022-09-28T01:25:41.917Z,99277.04
2022-09-28T01:28:16.956Z,99283.91
2022-09-28T01:31:14.574Z,99282.46
2022-09-28T01:33:50.735Z,99277.20
2022-09-28T01:36:50.282Z,99277.44
2022-09-28T01:39:37.096Z,99278.48
2022-09-28T01:42:30.932Z,99274.89
2022-09-28T01:45:07.527Z,99268.01
2022-09-28T01:47:40.353Z,99265.35
2022-09-28T01:50:17.660Z,99261.38
2022-09-28T01:53:05.707Z,99269.13
2022-09-28T01:55:41.669Z,99266.37
2022-09-28T01:58:42.284Z,99265.31
2022-09-28T02:01:19.581Z,99265.45
2022-09-28T02:04:00.203Z,99270.02
2022-09-28T02:06:52.435Z,99273.05
2022-09-28T02:09:33.802Z,99271.84
2022-09-28T02:12:15.659Z,99273.12
2022-09-28T02:14:48.621Z,99274.84
2022-09-28T02:17:15.975Z,99279.29
2022-09-28T02:19:47.813Z,99281.50
2022-09-28T02:23:02.255Z,99279.35
2022-09-28T02:25:45.334Z,99283.80
2022-09-28T02:28:13.818Z,99281.48
2022-09-28T02:30:44.458Z,99289.40
2022-09-28T02:33:31.901Z,99296.63
2022-09-28T02:36:00.661Z,99298.89
2022-09-28T02:38:28.455Z,99307.77
2022-09-28T02:41:10.978Z,99308.16
2022-09-28T02:44:04.257Z,99306.33
2022-09-28T02:46:37.556Z,99310.49
2022-09-28T02:49:43.211Z,99309.33
2022-09-28T02:52:23.875Z,99312.05
2022-09-28T02:55:20.595Z,99316.73
2022-09-28T02:58:03.152Z,99321.05
2022-09-28T03:00:32.476Z,99321.94
2022-09-28T03:03:23.366Z,99323.13
2022-09-28T03:06:25.246Z,99323.23
2022-09-28T03:09:22.754Z,99318.54
2022-09-28T03:11:56.938Z,99314.00
2022-09-28T03:14:24.615Z,99305.89
2022-09-28T03:16:54.701Z,99306.86
2022-09-28T03:19:31.623Z,99308.00
2022-09-28T03:22:01.318Z,99307.83
2022-09-28T03:24:28.693Z,99314.55
2022-09-28T03:26:55.915Z,99319.27
2022-09-28T03:29:23.471Z,99319.42
2022-09-28T03:31:55.454Z,99322.91
2022-09-28T03:34:22.931Z,99318.98
2022-09-28T03:36:50.289Z,99322.60
2022-09-28T03:39:17.637Z,99325.38
2022-09-28T03:41:45.230Z,99326.09
2022-09-28T03:44:12.486Z,99323.50
2022-09-28T03:46:39.933Z,99326.77
2022-09-28T03:49:10.105Z,99325.38
2022-09-28T03:51:37.933Z,99319.61
2022-09-28T03:54:05.705Z,99313.20
2022-09-28T03:56:33.109Z,99318.01
2022-09-28T03:59:04.640Z,99320.27
2022-09-28T04:01:32.641Z,99321.88
2022-09-28T04:04:00.268Z,99327.46
2022-09-28T04:06:27.956Z,99331.98
2022-09-28T04:08:55.807Z,99328.23
2022-09-28T04:11:23.763Z,99326.98
2022-09-28T04:13:52.811Z,99329.80
2022-09-28T04:16:20.360Z,99330.29
2022-09-28T04:19:07.883Z,99331.27
2022-09-28T04:22:32.525Z,99330.95
2022-09-28T04:25:01.908Z,99337.50
2022-09-28T04:27:47.942Z,99343.27
2022-09-28T04:30:16.416Z,99349.73
2022-09-28T04:32:49.091Z,99350.88
2022-09-28T04:35:21.132Z,99351.48
2022-09-28T04:37:49.426Z,99350.71
2022-09-28T04:40:17.546Z,99350.84
2022-09-28T04:42:55.276Z,99350.98
2022-09-28T04:45:27.952Z,99356.14
2022-09-28T04:48:08.908Z,99361.97
2022-09-28T04:51:00.412Z,99361.05
2022-09-28T04:53:28.126Z,99355.45
2022-09-28T04:56:00.004Z,99359.05
2022-09-28T04:58:29.031Z,99357.40
2022-09-28T05:01:07.988Z,99358.36
2022-09-28T05:03:57.833Z,99362.62
2022-09-28T05:06:40.592Z,99362.63
2022-09-28T05:09:09.151Z,99369.09
2022-09-28T05:11:36.501Z,99363.90
2022-09-28T05:14:07.560Z,99364.74
2022-09-28T05:16:35.514Z,99371.27
2022-09-28T05:19:21.270Z,99367.72
2022-09-28T05:21:49.400Z,99367.82
2022-09-28T05:24:16.939Z,99371.95
2022-09-28T05:26:49.677Z,99374.77
2022-09-28T05:29:17.079Z,99379.60
2022-09-28T05:31:50.539Z,99379.04
2022-09-28T05:34:26.336Z,99378.28
2022-09-28T05:36:55.156Z,99378.88
2022-09-28T05:39:22.468Z,99380.65
2022-09-28T05:41:49.698Z,99379.16
2022-09-28T05:44:17.009Z,99387.70
2022-09-28T05:46:44.600Z,99381.15
2022-09-28T05:49:13.317Z,99383.33
2022-09-28T05:51:40.692Z,99385.98
2022-09-28T05:54:09.473Z,99386.25
2022-09-28T05:56:40.835Z,99388.20
2022-09-28T05:59:08.897Z,99396.45
2022-09-28T06:01:37.034Z,99400.46
2022-09-28T06:04:08.553Z,99399.55
2022-09-28T06:06:36.208Z,99401.78
2022-09-28T06:09:03.800Z,99405.80
2022-09-28T06:11:32.348Z,99407.05
2022-09-28T06:14:04.606Z,99401.01
2022-09-28T06:16:32.486Z,99398.13
2022-09-28T06:19:00.751Z,99400.00
2022-09-28T06:21:47.624Z,99394.35
2022-09-28T06:24:15.043Z,99394.58
2022-09-28T06:26:42.526Z,99388.77
2022-09-28T06:29:10.054Z,99389.08
2022-09-28T06:31:37.360Z,99391.06
2022-09-28T06:34:04.601Z,99384.46
2022-09-28T06:36:31.822Z,99384.55
2022-09-28T06:38:59.315Z,99398.49
2022-09-28T06:41:26.656Z,99398.63
2022-09-28T06:43:53.901Z,99398.17
2022-09-28T06:47:14.595Z,99390.27
2022-09-28T06:49:56.258Z,99389.72
2022-09-28T06:52:41.856Z,99392.04
2022-09-28T06:55:51.135Z,99392.15
2022-09-28T06:58:20.931Z,99387.02
2022-09-28T07:00:51.467Z,99388.55
2022-09-28T07:03:21.676Z,99394.41
2022-09-28T07:06:04.442Z,99395.42
2022-09-28T07:08:34.523Z,99394.41
2022-09-28T07:11:20.722Z,99390.81
2022-09-28T07:14:06.712Z,99390.66
2022-09-28T07:16:56.216Z,99394.65
2022-09-28T07:19:21.229Z,99395.48
2022-09-28T07:22:02.568Z,99403.83
2022-09-28T07:24:33.230Z,99409.83
2022-09-28T07:27:47.144Z,99414.38
2022-09-28T07:30:33.535Z,99410.11
2022-09-28T07:33:12.144Z,99414.19
2022-09-28T07:35:53.403Z,99416.10
2022-09-28T07:38:22.513Z,99423.67
2022-09-28T07:41:08.299Z,99419.52
2022-09-28T07:43:36.179Z,99418.79
2022-09-28T07:46:14.501Z,99419.65
2022-09-28T07:48:49.091Z,99419.89
2022-09-28T07:52:03.400Z,99424.71
2022-09-28T07:54:39.317Z,99426.41
2022-09-28T07:58:01.250Z,99422.69
2022-09-28T08:00:47.770Z,99416.61
2022-09-28T08:03:18.314Z,99428.39
2022-09-28T08:05:46.333Z,99425.84
2022-09-28T08:08:15.120Z,99420.19
2022-09-28T08:10:46.801Z,99419.64
2022-09-28T08:13:27.034Z,99419.41
2022-09-28T08:16:14.666Z,99416.03
2022-09-28T08:18:50.906Z,99428.71
2022-09-28T08:21:42.465Z,99426.98
2022-09-28T08:24:09.773Z,99441.67
2022-09-28T08:26:37.097Z,99445.09
2022-09-28T08:29:04.587Z,99451.59
2022-09-28T08:31:48.000Z,99451.55
2022-09-28T08:34:41.527Z,99455.41
2022-09-28T08:37:08.978Z,99456.59
2022-09-28T08:39:42.206Z,99454.64
2022-09-28T08:43:15.072Z,99459.73
2022-09-28T08:46:40.449Z,99465.27
2022-09-28T08:49:43.725Z,99474.60
2022-09-28T08:53:02.046Z,99476.09
2022-09-28T08:56:28.050Z,99474.33
2022-09-28T08:59:08.278Z,99478.04
2022-09-28T09:02:03.140Z,99478.21
2022-09-28T09:04:33.196Z,99474.34
2022-09-28T09:08:02.824Z,99468.95
2022-09-28T09:10:51.811Z,99471.11
2022-09-28T09:14:16.016Z,99467.36
2022-09-28T09:17:02.339Z,99461.81
2022-09-28T09:20:01.607Z,99466.90
2022-09-28T09:23:05.740Z,99470.42
2022-09-28T09:25:54.485Z,99468.99
2022-09-28T09:28:25.752Z,99463.35
2022-09-28T09:31:22.741Z,99465.16
2022-09-28T09:34:23.363Z,99463.86
2022-09-28T09:37:23.860Z,99456.87
2022-09-28T09:41:02.812Z,99452.61
2022-09-28T09:44:41.250Z,99457.84
2022-09-28T09:47:37.557Z,99450.52
2022-09-28T09:50:49.982Z,99456.89
2022-09-28T09:53:38.729Z,99454.99
2022-09-28T09:56:30.312Z,99456.42
2022-09-28T09:59:33.169Z,99457.58
2022-09-28T10:02:35.095Z,99459.61
2022-09-28T10:05:12.169Z,99458.02
2022-09-28T10:07:58.360Z,99460.81
2022-09-28T10:10:37.387Z,99459.42
2022-09-28T10:13:10.795Z,99460.04
2022-09-28T10:15:40.769Z,99455.31
2022-09-28T10:18:16.251Z,99454.31
2022-09-28T10:20:46.795Z,99458.73
2022-09-28T10:24:00.435Z,99461.16
2022-09-28T10:26:40.138Z,99464.80
2022-09-28T10:29:20.357Z,99460.60
2022-09-28T10:31:51.052Z,99465.51
2022-09-28T10:34:35.558Z,99461.27
2022-09-28T10:37:11.634Z,99457.38
2022-09-28T10:39:55.756Z,99452.88
2022-09-28T10:42:29.640Z,99455.61
2022-09-28T10:45:23.028Z,99457.90
2022-09-28T10:47:50.833Z,99459.19
2022-09-28T10:50:27.761Z,99454.53
2022-09-28T10:53:20.842Z,99460.14
2022-09-28T10:56:41.532Z,99458.83
2022-09-28T10:59:28.357Z,99450.52
2022-09-28T11:02:25.685Z,99450.71
2022-09-28T11:04:59.603Z,99447.83
2022-09-28T11:07:32.946Z,99447.64
2022-09-28T11:10:02.385Z,99443.89
2022-09-28T11:12:43.528Z,99443.39
2022-09-28T11:15:19.978Z,99443.92
2022-09-28T11:17:47.891Z,99446.94
2022-09-28T11:20:35.142Z,99445.67
2022-09-28T11:23:23.465Z,99437.85
2022-09-28T11:26:02.266Z,99439.64
2022-09-28T11:28:34.046Z,99443.91
2022-09-28T11:31:07.557Z,99445.89
2022-09-28T11:34:58.605Z,99443.83
2022-09-28T11:37:57.514Z,99437.79
2022-09-28T11:41:14.207Z,99438.93
2022-09-28T11:43:58.169Z,99438.73
2022-09-28T11:47:15.002Z,99440.14
2022-09-28T11:50:40.305Z,99443.89
2022-09-28T11:53:31.314Z,99448.45
2022-09-28T11:56:26.315Z,99450.86
2022-09-28T11:59:11.267Z,99455.93
2022-09-28T12:01:48.422Z,99460.23
2022-09-28T12:04:46.298Z,99465.63
2022-09-28T12:07:23.003Z,99463.23
2022-09-28T12:09:58.143Z,99465.89
2022-09-28T12:13:00.571Z,99464.14
2022-09-28T12:16:07.494Z,99462.38
2022-09-28T12:19:05.509Z,99464.81
2022-09-28T12:22:00.587Z,99466.68
2022-09-28T12:24:41.703Z,99469.02
2022-09-28T12:27:43.331Z,99473.64
2022-09-28T12:30:27.302Z,99470.54
2022-09-28T12:33:12.858Z,99475.80
2022-09-28T12:36:25.762Z,99478.05
2022-09-28T12:39:35.522Z,99480.45
2022-09-28T12:42:38.832Z,99483.50
2022-09-28T12:45:38.672Z,99482.59
2022-09-28T12:49:03.068Z,99481.72
2022-09-28T12:51:51.090Z,99483.06
2022-09-28T12:54:38.475Z,99485.42
2022-09-28T12:57:36.142Z,99488.89
2022-09-28T13:00:03.794Z,99490.83
2022-09-28T13:03:03.227Z,99493.30
2022-09-28T13:05:39.335Z,99494.17
2022-09-28T13:08:44.958Z,99490.44
2022-09-28T13:11:54.296Z,99489.55
2022-09-28T13:14:52.814Z,99492.09
2022-09-28T13:17:41.228Z,99494.62
2022-09-28T13:20:17.669Z,99497.52
2022-09-28T13:22:54.749Z,99501.91
2022-09-28T13:25:27.160Z,99506.79
2022-09-28T13:28:06.013Z,99520.16
2022-09-28T13:30:38.941Z,99518.56
2022-09-28T13:33:14.215Z,99529.09
2022-09-28T13:35:43.780Z,99523.25
2022-09-28T13:38:17.243Z,99537.21
2022-09-28T13:41:03.516Z,99535.59
2022-09-28T13:44:12.665Z,99545.37
2022-09-28T13:47:04.232Z,99549.89
2022-09-28T13:50:25.437Z,99549.64
2022-09-28T13:53:18.902Z,99556.80
2022-09-28T13:56:26.374Z,99557.67
2022-09-28T13:59:04.973Z,99556.17
2022-09-28T14:01:40.927Z,99556.33
2022-09-28T14:04:21.596Z,99565.09
2022-09-28T14:07:08.991Z,99568.04
2022-09-28T14:10:52.382Z,99567.93
2022-09-28T14:13:40.899Z,99571.58
2022-09-28T14:16:17.626Z,99575.34
2022-09-28T14:18:57.389Z,99574.27
2022-09-28T14:22:04.069Z,99577.54
2022-09-28T14:24:37.436Z,99583.06
2022-09-28T14:27:13.630Z,99587.20
2022-09-28T14:29:41.333Z,99589.98
2022-09-28T14:32:08.522Z,99587.84
2022-09-28T14:34:46.100Z,99588.66
2022-09-28T14:37:51.913Z,99586.81
2022-09-28T14:40:54.410Z,99587.54
2022-09-28T14:43:44.153Z,99587.14
2022-09-28T14:46:11.466Z,99594.95
2022-09-28T14:49:14.250Z,99595.73
2022-09-28T14:51:41.438Z,99596.60
2022-09-28T14:54:10.208Z,99599.02
2022-09-28T14:56:51.910Z,99608.27
2022-09-28T14:59:30.044Z,99610.55
2022-09-28T15:02:11.492Z,99618.08
2022-09-28T15:05:14.363Z,99615.13
2022-09-28T15:07:51.449Z,99630.27
2022-09-28T15:10:35.797Z,99634.89
2022-09-28T15:13:20.348Z,99635.48
2022-09-28T15:15:53.557Z,99640.38
2022-09-28T15:19:10.104Z,99644.98
2022-09-28T15:21:41.097Z,99653.80
2022-09-28T15:24:34.798Z,99652.18
2022-09-28T15:27:18.483Z,99655.52
2022-09-28T15:30:21.686Z,99660.58
2022-09-28T15:32:50.154Z,99669.48
2022-09-28T15:35:25.939Z,99666.67
2022-09-28T15:37:55.145Z,99674.82
2022-09-28T15:40:25.730Z,99680.59
2022-09-28T15:42:59.040Z,99683.70
2022-09-28T15:45:40.078Z,99681.79
2022-09-28T15:48:33.126Z,99683.79
2022-09-28T15:51:11.240Z,99686.24
2022-09-28T15:54:09.152Z,99690.30
2022-09-28T15:57:02.042Z,99695.85
2022-09-28T15:59:37.817Z,99700.60
2022-09-28T16:02:25.185Z,99701.04
2022-09-28T16:05:01.185Z,99706.02
2022-09-28T16:07:40.598Z,99715.48
2022-09-28T16:10:11.246Z,99721.96
2022-09-28T16:12:51.805Z,99723.70
2022-09-28T16:15:32.177Z,99720.41
2022-09-28T16:18:20.600Z,99717.25
2022-09-28T16:20:55.751Z,99720.14
2022-09-28T16:23:31.694Z,99711.91
2022-09-28T16:26:05.980Z,99718.17
2022-09-28T16:28:34.596Z,99716.05
2022-09-28T16:31:26.835Z,99718.27
2022-09-28T16:34:01.013Z,99716.84
2022-09-28T16:36:43.160Z,99721.14
2022-09-28T16:39:18.813Z,99722.88
2022-09-28T16:41:56.484Z,99727.20
2022-09-28T16:44:30.187Z,99734.17
2022-09-28T16:47:32.256Z,99740.16
2022-09-28T16:50:24.210Z,99741.86
2022-09-28T16:53:38.503Z,99746.52
2022-09-28T16:56:49.815Z,99753.70
2022-09-28T16:59:25.643Z,99758.59
2022-09-28T17:02:46.178Z,99753.10
2022-09-28T17:06:30.458Z,99760.92
2022-09-28T17:09:45.214Z,99761.88
2022-09-28T17:12:38.680Z,99775.17
2022-09-28T17:15:07.739Z,99776.08
2022-09-28T17:17:38.183Z,99778.52
2022-09-28T17:20:27.704Z,99788.50
2022-09-28T17:22:55.971Z,99789.55
2022-09-28T17:25:25.630Z,99797.73
2022-09-28T17:27:57.067Z,99799.38
2022-09-28T17:30:25.825Z,99807.70
2022-09-28T17:32:53.787Z,99811.84
2022-09-28T17:35:25.425Z,99812.95
2022-09-28T17:37:54.025Z,99813.45
2022-09-28T17:40:28.173Z,99817.12
2022-09-28T17:42:57.123Z,99819.74
2022-09-28T17:45:28.092Z,99822.55
2022-09-28T17:47:55.556Z,99824.08
2022-09-28T17:50:30.246Z,99827.58
2022-09-28T17:52:59.534Z,99830.84
2022-09-28T17:55:31.163Z,99833.48
2022-09-28T17:58:02.662Z,99837.12
2022-09-28T18:00:31.303Z,99838.08
2022-09-28T18:02:58.660Z,99835.38
2022-09-28T18:05:28.650Z,99839.20
2022-09-28T18:07:58.467Z,99837.71
2022-09-28T18:10:30.132Z,99839.45
2022-09-28T18:12:57.529Z,99837.41
2022-09-28T18:15:24.858Z,99841.12
2022-09-28T18:17:52.205Z,99839.72
2022-09-28T18:20:19.747Z,99834.19
2022-09-28T18:22:46.923Z,99843.27
2022-09-28T18:25:14.309Z,99849.09
2022-09-28T18:27:41.598Z,99846.60
2022-09-28T18:30:09.353Z,99847.19
2022-09-28T18:32:37.149Z,99849.17
2022-09-28T18:35:07.382Z,99851.63
2022-09-28T18:37:39.543Z,99853.18
2022-09-28T18:40:14.869Z,99851.10
2022-09-28T18:42:42.325Z,99852.65
2022-09-28T18:45:10.802Z,99855.23
2022-09-28T18:47:39.526Z,99855.48
2022-09-28T18:50:07.747Z,99848.77
2022-09-28T18:52:39.480Z,99851.00
2022-09-28T18:55:08.284Z,99853.45
2022-09-28T18:57:36.155Z,99861.52
2022-09-28T19:00:10.559Z,99865.83
2022-09-28T19:02:38.245Z,99860.27
2022-09-28T19:05:06.360Z,99858.00
2022-09-28T19:07:34.018Z,99861.74
2022-09-28T19:10:01.218Z,99862.89
2022-09-28T19:12:28.452Z,99860.39
2022-09-28T19:14:56.027Z,99864.87
2022-09-28T19:17:23.394Z,99867.86
2022-09-28T19:19:51.689Z,99871.13
2022-09-28T19:22:18.930Z,99872.58
2022-09-28T19:24:46.208Z,99875.05
2022-09-28T19:27:13.458Z,99876.36
2022-09-28T19:29:40.904Z,99878.95
2022-09-28T19:32:08.226Z,99885.94
2022-09-28T19:34:35.478Z,99885.45
2022-09-28T19:37:03.615Z,99885.28
2022-09-28T19:39:31.916Z,99884.06
2022-09-28T19:42:00.712Z,99891.75
2022-09-28T19:44:29.182Z,99889.14
2022-09-28T19:47:09.460Z,99889.21
2022-09-28T19:49:39.815Z,99892.64
2022-09-28T19:52:15.348Z,99890.67
2022-09-28T19:54:59.718Z,99895.16
2022-09-28T19:57:30.303Z,99897.07
2022-09-28T20:00:02.036Z,99894.36
2022-09-28T20:02:34.145Z,99894.32
2022-09-28T20:05:01.600Z,99889.98
2022-09-28T20:07:32.310Z,99885.92
2022-09-28T20:09:59.709Z,99886.59
2022-09-28T20:12:26.924Z,99891.35
2022-09-28T20:14:54.180Z,99898.34
2022-09-28T20:17:21.474Z,99906.61
2022-09-28T20:19:51.139Z,99907.44
2022-09-28T20:22:19.531Z,99901.81
2022-09-28T20:24:46.872Z,99901.25
2022-09-28T20:27:14.137Z,99904.76
2022-09-28T20:29:42.586Z,99902.50
2022-09-28T20:32:11.130Z,99901.66
2022-09-28T20:34:38.403Z,99898.66
2022-09-28T20:37:05.761Z,99902.08
2022-09-28T20:39:33.489Z,99907.34
2022-09-28T20:42:01.011Z,99905.41
2022-09-28T20:44:28.219Z,99911.20
2022-09-28T20:46:56.230Z,99913.09
2022-09-28T20:49:24.381Z,99910.73
2022-09-28T20:51:51.664Z,99902.11
2022-09-28T20:54:20.847Z,99895.87
2022-09-28T20:56:48.355Z,99897.91
2022-09-28T20:59:15.780Z,99899.06
2022-09-28T21:01:43.412Z,99899.77
2022-09-28T21:04:11.001Z,99899.35
2022-09-28T21:06:41.318Z,99902.34
2022-09-28T21:09:10.785Z,99902.75
2022-09-28T21:11:39.759Z,99904.45
2022-09-28T21:14:09.745Z,99901.91
2022-09-28T21:16:37.959Z,99903.48
2022-09-28T21:19:05.117Z,99908.96
2022-09-28T21:21:32.514Z,99909.13
2022-09-28T21:23:59.888Z,99912.67
2022-09-28T21:26:30.739Z,99909.77
2022-09-28T21:29:05.431Z,99911.80
2022-09-28T21:31:40.709Z,99912.35
2022-09-28T21:34:19.982Z,99915.14
2022-09-28T21:36:50.641Z,99912.58
2022-09-28T21:39:19.772Z,99910.61
2022-09-28T21:41:47.528Z,99917.07
2022-09-28T21:44:14.817Z,99918.63
2022-09-28T21:46:42.509Z,99923.50
2022-09-28T21:49:10.264Z,99928.84
2022-09-28T21:51:37.630Z,99935.91
2022-09-28T21:54:05.039Z,99941.59
2022-09-28T21:56:32.207Z,99947.86
2022-09-28T21:59:00.722Z,99941.42
2022-09-28T22:01:28.810Z,99945.23
2022-09-28T22:03:57.181Z,99948.91
2022-09-28T22:06:27.849Z,99951.16
2022-09-28T22:08:55.723Z,99950.86
2022-09-28T22:11:27.021Z,99951.98
2022-09-28T22:13:59.658Z,99956.13
2022-09-28T22:16:30.295Z,99963.70
2022-09-28T22:18:58.692Z,99963.10
2022-09-28T22:21:32.208Z,99961.24
2022-09-28T22:24:01.902Z,99960.17
2022-09-28T22:26:31.373Z,99961.19
2022-09-28T22:29:05.306Z,99954.09
2022-09-28T22:31:36.121Z,99957.44
2022-09-28T22:34:04.751Z,99955.44
2022-09-28T22:36:34.534Z,99957.89
2022-09-28T22:39:05.735Z,99948.13
2022-09-28T22:41:33.118Z,99959.71
2022-09-28T22:44:00.698Z,99964.89
2022-09-28T22:46:31.234Z,99962.58
2022-09-28T22:48:59.608Z,99965.23
2022-09-28T22:51:29.091Z,99974.98
2022-09-28T22:53:57.370Z,99976.80
2022-09-28T22:56:25.284Z,99967.57
2022-09-28T22:58:52.694Z,99967.75
2022-09-28T23:01:29.248Z,99966.99
2022-09-28T23:03:57.630Z,99964.77
2022-09-28T23:06:28.464Z,99961.50
2022-09-28T23:08:56.179Z,99965.60
2022-09-28T23:11:23.282Z,99965.91
2022-09-28T23:13:56.786Z,99967.45
2022-09-28T23:16:26.103Z,99967.83
2022-09-28T23:18:54.787Z,99969.58
2022-09-28T23:21:25.385Z,99967.93
2022-09-28T23:23:56.660Z,99973.05
2022-09-28T23:26:28.539Z,99981.61
2022-09-28T23:28:55.894Z,99986.55
2022-09-28T23:31:27.378Z,99984.55
2022-09-28T23:34:01.119Z,99980.69
2022-09-28T23:36:28.561Z,99977.20
2022-09-28T23:38:55.744Z,99978.39
2022-09-28T23:41:23.268Z,99973.89
2022-09-28T23:43:50.491Z,99979.13
2022-09-28T23:46:21.025Z,99976.85
2022-09-28T23:48:49.566Z,99977.71
2022-09-28T23:51:16.881Z,99978.11
2022-09-28T23:53:45.020Z,99979.52
2022-09-28T23:56:14.046Z,99980.84
2022-09-28T23:58:41.205Z,99974.22
